createdAt,value
2017-06-28T00:00:11.823Z,7.97
2017-06-28T00:02:37.719Z,7.33
2017-06-28T00:05:04.467Z,7.80
2017-06-28T00:07:30.375Z,7.77
2017-06-28T00:09:56.310Z,6.80
2017-06-28T00:12:22.215Z,7.20
2017-06-28T00:14:48.147Z,7.13
2017-06-28T00:17:14.097Z,7.33
2017-06-28T00:19:40.020Z,7.60
2017-06-28T00:22:05.983Z,7.00
2017-06-28T00:24:31.914Z,6.80
2017-06-28T00:26:57.934Z,6.90
2017-06-28T00:29:23.848Z,6.63
2017-06-28T00:31:49.787Z,7.30
2017-06-28T00:34:15.716Z,6.93
2017-06-28T00:36:41.669Z,7.90
2017-06-28T00:39:07.604Z,7.60
2017-06-28T00:41:33.522Z,7.17
2017-06-28T00:43:59.464Z,6.97
2017-06-28T00:46:25.398Z,7.47
2017-06-28T00:48:51.347Z,7.07
2017-06-28T00:51:17.266Z,7.20
2017-06-28T00:53:43.205Z,7.27
2017-06-28T00:56:09.152Z,7.73
2017-06-28T00:58:35.187Z,7.17
2017-06-28T01:01:01.091Z,7.23
2017-06-28T01:03:26.999Z,6.60
2017-06-28T01:05:52.972Z,6.70
2017-06-28T01:08:18.903Z,6.60
2017-06-28T01:10:44.841Z,6.20
2017-06-28T01:13:10.754Z,6.67
2017-06-28T01:15:36.683Z,6.00
2017-06-28T01:18:02.634Z,5.70
2017-06-28T01:20:28.550Z,6.00
2017-06-28T01:22:54.482Z,6.27
2017-06-28T01:25:20.410Z,5.83
2017-06-28T01:27:46.339Z,6.30
2017-06-28T01:30:12.275Z,5.83
2017-06-28T01:32:38.249Z,6.60
2017-06-28T01:35:04.203Z,7.60
2017-06-28T01:37:30.123Z,6.73
2017-06-28T01:39:56.066Z,6.67
2017-06-28T01:42:22.024Z,6.00
2017-06-28T01:44:48.679Z,6.23
2017-06-28T01:47:14.619Z,6.20
2017-06-28T01:49:41.398Z,6.10
2017-06-28T01:52:07.328Z,6.90
2017-06-28T01:54:33.271Z,6.50
2017-06-28T01:56:59.191Z,5.50
2017-06-28T01:59:25.119Z,8.13
2017-06-28T02:01:51.018Z,7.07
2017-06-28T02:04:16.959Z,7.50
2017-06-28T02:06:42.943Z,6.30
2017-06-28T02:09:08.870Z,6.40
2017-06-28T02:11:34.803Z,7.17
2017-06-28T02:14:00.743Z,6.57
2017-06-28T02:16:26.748Z,5.83
2017-06-28T02:18:52.701Z,6.70
2017-06-28T02:21:18.664Z,6.33
2017-06-28T02:23:44.579Z,6.90
2017-06-28T02:26:10.580Z,6.80
2017-06-28T02:28:36.538Z,7.20
2017-06-28T02:31:02.459Z,6.70
2017-06-28T02:33:28.427Z,7.90
2017-06-28T02:35:54.369Z,7.67
2017-06-28T02:38:20.318Z,7.97
2017-06-28T02:40:46.256Z,9.40
2017-06-28T02:43:12.938Z,8.10
2017-06-28T02:45:38.914Z,7.00
2017-06-28T02:48:04.856Z,7.53
2017-06-28T02:50:30.802Z,6.80
2017-06-28T02:52:56.746Z,8.33
2017-06-28T02:55:22.679Z,8.03
2017-06-28T02:57:48.627Z,7.60
2017-06-28T03:00:15.295Z,6.83
2017-06-28T03:02:41.247Z,7.57
2017-06-28T03:05:07.197Z,8.07
2017-06-28T03:07:33.182Z,8.10
2017-06-28T03:09:59.129Z,8.27
2017-06-28T03:12:25.064Z,8.20
2017-06-28T03:14:51.760Z,8.27
2017-06-28T03:17:17.719Z,8.23
2017-06-28T03:19:43.669Z,9.97
2017-06-28T03:22:09.592Z,9.73
2017-06-28T03:24:35.571Z,9.00
2017-06-28T03:27:01.507Z,8.90
2017-06-28T03:29:28.194Z,8.80
2017-06-28T03:31:54.120Z,8.80
2017-06-28T03:34:20.047Z,9.67
2017-06-28T03:36:45.955Z,10.07
2017-06-28T03:39:11.934Z,10.33
2017-06-28T03:41:37.891Z,10.10
2017-06-28T03:44:03.827Z,10.67
2017-06-28T03:46:29.805Z,10.77
2017-06-28T03:48:55.727Z,10.50
2017-06-28T03:51:21.662Z,10.77
2017-06-28T03:53:47.608Z,11.47
2017-06-28T03:56:13.679Z,10.97
2017-06-28T03:58:39.599Z,10.17
2017-06-28T04:01:05.527Z,12.00
2017-06-28T04:03:31.451Z,11.30
2017-06-28T04:05:57.392Z,11.90
2017-06-28T04:08:23.327Z,12.23
2017-06-28T04:10:49.258Z,12.03
2017-06-28T04:13:15.176Z,12.57
2017-06-28T04:15:41.110Z,12.40
2017-06-28T04:18:07.067Z,13.10
2017-06-28T04:20:33.001Z,12.50
2017-06-28T04:22:58.943Z,13.00
2017-06-28T04:25:24.866Z,14.67
2017-06-28T04:27:50.885Z,14.23
2017-06-28T04:30:16.826Z,13.40
2017-06-28T04:32:42.763Z,12.87
2017-06-28T04:35:08.716Z,13.07
2017-06-28T04:37:34.649Z,11.50
2017-06-28T04:40:00.593Z,13.60
2017-06-28T04:42:26.551Z,12.33
2017-06-28T04:44:52.483Z,12.47
2017-06-28T04:47:19.184Z,13.70
2017-06-28T04:49:45.111Z,13.20
2017-06-28T04:52:11.059Z,12.87
2017-06-28T04:54:36.995Z,12.50
2017-06-28T04:57:02.930Z,14.10
2017-06-28T04:59:28.859Z,13.10
2017-06-28T05:01:54.773Z,12.60
2017-06-28T05:04:20.721Z,13.10
2017-06-28T05:06:46.675Z,13.30
2017-06-28T05:09:12.644Z,14.93
2017-06-28T05:11:38.580Z,14.57
2017-06-28T05:14:04.524Z,13.07
2017-06-28T05:16:30.467Z,15.27
2017-06-28T05:18:56.388Z,13.70
2017-06-28T05:21:22.305Z,15.67
2017-06-28T05:23:48.247Z,15.43
2017-06-28T05:26:14.217Z,14.40
2017-06-28T05:28:40.172Z,15.67
2017-06-28T05:31:06.111Z,13.70
2017-06-28T05:33:32.171Z,13.80
2017-06-28T05:35:59.136Z,15.47
2017-06-28T05:38:25.090Z,16.37
2017-06-28T05:40:51.029Z,16.73
2017-06-28T05:43:17.238Z,16.03
2017-06-28T05:45:43.240Z,14.60
2017-06-28T05:48:09.176Z,15.47
2017-06-28T05:50:35.096Z,18.40
2017-06-28T05:53:01.023Z,15.50
2017-06-28T05:55:27.691Z,15.33
2017-06-28T05:57:53.616Z,15.40
2017-06-28T06:00:19.551Z,15.60
2017-06-28T06:02:45.549Z,18.30
2017-06-28T06:05:11.476Z,13.87
2017-06-28T06:07:37.398Z,15.90
2017-06-28T06:10:03.927Z,15.27
2017-06-28T06:12:29.847Z,15.37
2017-06-28T06:14:55.844Z,12.47
2017-06-28T06:17:22.611Z,14.40
2017-06-28T06:19:48.527Z,12.00
2017-06-28T06:22:14.471Z,12.80
2017-06-28T06:24:40.469Z,10.53
2017-06-28T06:27:06.495Z,9.40
2017-06-28T06:29:32.418Z,9.17
2017-06-28T06:31:58.415Z,9.60
2017-06-28T06:34:24.444Z,8.40
2017-06-28T06:36:50.413Z,8.40
2017-06-28T06:39:16.370Z,8.03
2017-06-28T06:41:42.303Z,8.77
2017-06-28T06:44:08.342Z,7.60
2017-06-28T06:46:34.331Z,8.57
2017-06-28T06:49:00.974Z,8.60
2017-06-28T06:51:26.915Z,8.57
2017-06-28T06:53:52.983Z,8.50
2017-06-28T06:56:18.906Z,7.23
2017-06-28T06:58:44.816Z,9.33
2017-06-28T07:01:10.730Z,8.53
2017-06-28T07:03:36.803Z,7.80
2017-06-28T07:06:02.755Z,9.00
2017-06-28T07:08:28.731Z,8.87
2017-06-28T07:10:54.655Z,9.30
2017-06-28T07:13:20.575Z,9.07
2017-06-28T07:15:46.486Z,8.80
2017-06-28T07:18:12.461Z,8.60
2017-06-28T07:20:38.359Z,8.80
2017-06-28T07:23:04.357Z,9.33
2017-06-28T07:25:31.048Z,9.03
2017-06-28T07:27:57.020Z,9.27
2017-06-28T07:30:22.924Z,8.43
2017-06-28T07:32:49.135Z,10.20
2017-06-28T07:35:15.929Z,9.20
2017-06-28T07:37:41.870Z,9.90
2017-06-28T07:40:07.811Z,10.87
2017-06-28T07:42:34.622Z,10.23
2017-06-28T07:45:00.555Z,11.37
2017-06-28T07:47:26.467Z,10.47
2017-06-28T07:49:52.460Z,11.77
2017-06-28T07:52:18.384Z,11.03
2017-06-28T07:54:51.289Z,10.87
2017-06-28T07:57:17.184Z,10.27
2017-06-28T07:59:43.184Z,10.00
2017-06-28T08:02:09.136Z,10.50
2017-06-28T08:04:35.055Z,10.10
2017-06-28T08:07:00.966Z,9.50
2017-06-28T08:09:26.871Z,8.47
2017-06-28T08:11:52.785Z,8.30
2017-06-28T08:14:18.708Z,7.87
2017-06-28T08:16:44.639Z,7.23
2017-06-28T08:19:10.556Z,7.60
2017-06-28T08:21:36.470Z,7.37
2017-06-28T08:24:02.403Z,7.57
2017-06-28T08:26:28.323Z,7.80
2017-06-28T08:28:54.223Z,7.50
2017-06-28T08:31:20.127Z,7.00
2017-06-28T08:33:46.038Z,7.73
2017-06-28T08:36:12.012Z,7.07
2017-06-28T08:38:37.908Z,6.50
2017-06-28T08:41:03.816Z,7.60
2017-06-28T08:43:29.747Z,7.20
2017-06-28T08:45:55.677Z,6.37
2017-06-28T08:48:21.613Z,7.00
2017-06-28T08:50:47.535Z,7.40
2017-06-28T08:53:13.447Z,6.47
2017-06-28T08:55:39.360Z,6.83
2017-06-28T08:58:05.278Z,7.60
2017-06-28T09:00:31.199Z,5.63
2017-06-28T09:02:57.111Z,6.23
2017-06-28T09:05:23.036Z,5.70
2017-06-28T09:07:48.975Z,5.37
2017-06-28T09:10:14.927Z,5.50
2017-06-28T09:12:40.846Z,5.10
2017-06-28T09:15:06.811Z,5.77
2017-06-28T09:17:32.782Z,6.50
2017-06-28T09:19:58.719Z,5.20
2017-06-28T09:22:24.639Z,5.77
2017-06-28T09:24:50.585Z,5.77
2017-06-28T09:27:16.523Z,5.70
2017-06-28T09:29:42.464Z,5.40
2017-06-28T09:32:08.391Z,5.60
2017-06-28T09:34:34.387Z,5.90
2017-06-28T09:37:00.300Z,6.07
2017-06-28T09:39:26.275Z,4.97
2017-06-28T09:41:52.192Z,5.30
2017-06-28T09:44:18.128Z,5.83
2017-06-28T09:46:44.034Z,5.60
2017-06-28T09:49:10.003Z,5.53
2017-06-28T09:51:35.931Z,5.57
2017-06-28T09:54:02.715Z,6.10
2017-06-28T09:56:28.631Z,5.60
2017-06-28T09:58:54.549Z,6.30
2017-06-28T10:01:20.491Z,5.97
2017-06-28T10:03:46.428Z,6.30
2017-06-28T10:06:12.347Z,6.00
2017-06-28T10:08:38.267Z,5.43
2017-06-28T10:11:04.183Z,5.87
2017-06-28T10:13:30.120Z,6.07
2017-06-28T10:15:56.063Z,6.03
2017-06-28T10:18:22.773Z,8.60
2017-06-28T10:20:48.760Z,7.60
2017-06-28T10:23:14.799Z,6.10
2017-06-28T10:25:40.773Z,6.20
2017-06-28T10:28:06.722Z,7.13
2017-06-28T10:30:32.687Z,6.20
2017-06-28T10:32:58.679Z,6.90
2017-06-28T10:35:24.658Z,6.00
2017-06-28T10:37:51.547Z,5.53
2017-06-28T10:40:17.514Z,5.83
2017-06-28T10:42:43.496Z,6.40
2017-06-28T10:45:09.439Z,6.27
2017-06-28T10:47:35.364Z,6.07
2017-06-28T10:50:01.371Z,5.50
2017-06-28T10:52:27.300Z,6.00
2017-06-28T10:54:54.016Z,4.90
2017-06-28T10:57:21.461Z,5.23
2017-06-28T10:59:47.446Z,6.60
2017-06-28T11:02:14.103Z,5.80
2017-06-28T11:04:40.015Z,5.47
2017-06-28T11:07:05.904Z,5.40
2017-06-28T11:09:31.840Z,5.97
2017-06-28T11:11:58.538Z,5.20
2017-06-28T11:14:24.509Z,5.60
2017-06-28T11:16:50.457Z,5.23
2017-06-28T11:19:16.434Z,5.53
2017-06-28T11:21:43.102Z,5.43
2017-06-28T11:24:09.021Z,5.33
2017-06-28T11:26:34.946Z,5.17
2017-06-28T11:29:00.857Z,4.53
2017-06-28T11:31:28.400Z,5.07
2017-06-28T11:33:54.333Z,5.37
2017-06-28T11:36:20.250Z,5.17
2017-06-28T11:38:46.208Z,4.97
2017-06-28T11:41:12.135Z,4.63
2017-06-28T11:43:39.605Z,4.90
2017-06-28T11:46:05.765Z,4.97
2017-06-28T11:48:31.692Z,5.13
2017-06-28T11:50:57.660Z,5.20
2017-06-28T11:53:23.760Z,5.00
2017-06-28T11:55:49.917Z,4.57
2017-06-28T11:58:15.819Z,4.90
2017-06-28T12:00:41.723Z,4.53
2017-06-28T12:03:07.736Z,5.03
2017-06-28T12:05:33.648Z,4.20
2017-06-28T12:07:59.557Z,4.30
2017-06-28T12:10:25.482Z,4.53
2017-06-28T12:12:51.559Z,4.50
2017-06-28T12:15:17.721Z,4.67
2017-06-28T12:17:44.787Z,4.87
2017-06-28T12:20:10.829Z,5.30
2017-06-28T12:22:36.745Z,4.70
2017-06-28T12:25:02.665Z,4.93
2017-06-28T12:27:28.587Z,4.30
2017-06-28T12:29:54.591Z,4.63
2017-06-28T12:32:20.532Z,4.70
2017-06-28T12:34:46.461Z,4.30
2017-06-28T12:37:12.374Z,4.50
2017-06-28T12:39:38.293Z,4.33
2017-06-28T12:42:04.229Z,5.37
2017-06-28T12:44:30.171Z,5.33
2017-06-28T12:46:56.107Z,5.57
2017-06-28T12:49:22.033Z,5.17
2017-06-28T12:51:47.934Z,5.50
2017-06-28T12:54:13.856Z,4.50
2017-06-28T12:56:39.772Z,4.80
2017-06-28T12:59:05.857Z,5.30
2017-06-28T13:01:31.763Z,5.13
2017-06-28T13:03:57.708Z,5.63
2017-06-28T13:06:23.719Z,5.00
2017-06-28T13:08:49.727Z,5.70
2017-06-28T13:11:15.623Z,5.10
2017-06-28T13:13:41.554Z,4.70
2017-06-28T13:16:07.483Z,5.37
2017-06-28T13:18:33.433Z,5.37
2017-06-28T13:20:59.431Z,5.33
2017-06-28T13:23:25.383Z,4.67
2017-06-28T13:25:51.329Z,6.03
2017-06-28T13:28:17.267Z,4.60
2017-06-28T13:30:43.993Z,5.63
2017-06-28T13:33:10.428Z,4.83
2017-06-28T13:35:37.295Z,3.97
2017-06-28T13:38:03.318Z,3.80
2017-06-28T13:40:30.080Z,3.80
2017-06-28T13:42:56.104Z,3.77
2017-06-28T13:45:22.985Z,4.80
2017-06-28T13:47:49.036Z,4.10
2017-06-28T13:50:15.231Z,3.93
2017-06-28T13:52:41.239Z,4.00
2017-06-28T13:55:07.458Z,3.27
2017-06-28T13:57:33.476Z,3.20
2017-06-28T14:00:02.306Z,3.90
2017-06-28T14:02:29.166Z,3.67
2017-06-28T14:04:55.172Z,3.27
2017-06-28T14:07:21.203Z,3.30
2017-06-28T14:09:48.187Z,3.33
2017-06-28T14:12:14.211Z,3.53
2017-06-28T14:14:40.205Z,3.00
2017-06-28T14:17:07.089Z,3.47
2017-06-28T14:19:33.035Z,2.90
2017-06-28T14:21:59.329Z,3.13
2017-06-28T14:24:25.271Z,3.50
2017-06-28T14:26:51.228Z,2.70
2017-06-28T14:29:17.832Z,2.50
2017-06-28T14:31:43.839Z,3.17
2017-06-28T14:34:09.837Z,2.93
2017-06-28T14:36:37.268Z,3.60
2017-06-28T14:39:03.239Z,2.80
2017-06-28T14:41:29.172Z,3.00
2017-06-28T14:43:55.156Z,2.73
2017-06-28T14:46:21.421Z,3.27
2017-06-28T14:48:47.412Z,3.30
2017-06-28T14:51:13.567Z,3.13
2017-06-28T14:53:39.508Z,3.30
2017-06-28T14:56:05.533Z,3.20
2017-06-28T14:58:31.534Z,3.17
2017-06-28T15:00:57.460Z,3.20
2017-06-28T15:03:23.412Z,3.47
2017-06-28T15:05:49.404Z,3.67
2017-06-28T15:08:15.375Z,3.03
2017-06-28T15:10:41.620Z,3.50
2017-06-28T15:13:07.596Z,3.90
2017-06-28T15:15:33.579Z,3.40
2017-06-28T15:17:59.525Z,3.50
2017-06-28T15:20:25.461Z,3.30
2017-06-28T15:22:51.492Z,3.00
2017-06-28T15:25:19.004Z,3.53
2017-06-28T15:27:44.964Z,3.70
2017-06-28T15:30:11.000Z,3.67
2017-06-28T15:32:36.913Z,3.60
2017-06-28T15:35:03.005Z,3.63
2017-06-28T15:37:28.937Z,3.10
2017-06-28T15:39:54.896Z,4.50
2017-06-28T15:42:20.928Z,3.70
2017-06-28T15:44:46.843Z,3.57
2017-06-28T15:47:12.835Z,3.70
2017-06-28T15:49:38.786Z,4.10
2017-06-28T15:52:05.486Z,3.23
2017-06-28T15:54:32.256Z,3.80
2017-06-28T15:56:58.239Z,3.73
2017-06-28T15:59:24.179Z,3.30
2017-06-28T16:01:50.112Z,3.60
2017-06-28T16:04:16.036Z,3.33
2017-06-28T16:06:42.063Z,3.40
2017-06-28T16:09:08.022Z,3.07
2017-06-28T16:11:33.922Z,3.57
2017-06-28T16:13:59.899Z,3.20
2017-06-28T16:16:25.853Z,3.50
2017-06-28T16:18:51.836Z,3.33
2017-06-28T16:21:17.771Z,3.80
2017-06-28T16:23:43.719Z,3.60
2017-06-28T16:26:09.744Z,2.87
2017-06-28T16:31:08.471Z,3.70
2017-06-28T16:33:34.452Z,3.13
2017-06-28T16:36:01.273Z,3.70
2017-06-28T16:38:27.224Z,3.13
2017-06-28T16:40:53.356Z,3.23
2017-06-28T16:43:19.283Z,3.73
2017-06-28T16:45:45.317Z,3.47
2017-06-28T16:48:11.222Z,3.97
2017-06-28T16:50:37.232Z,4.20
2017-06-28T16:53:03.164Z,3.90
2017-06-28T16:55:29.199Z,3.97
2017-06-28T16:57:55.115Z,3.60
2017-06-28T17:00:21.411Z,3.80
2017-06-28T17:02:47.363Z,3.80
2017-06-28T17:05:13.312Z,3.77
2017-06-28T17:07:39.202Z,4.10
2017-06-28T17:10:05.130Z,4.00
2017-06-28T17:12:31.058Z,3.93
2017-06-28T17:14:57.069Z,3.37
2017-06-28T17:17:23.075Z,4.10
2017-06-28T17:19:49.100Z,4.27
2017-06-28T17:22:15.172Z,5.40
2017-06-28T17:24:41.111Z,5.17
2017-06-28T17:27:07.054Z,3.60
2017-06-28T17:29:33.582Z,3.77
2017-06-28T17:31:59.530Z,3.90
2017-06-28T17:34:25.474Z,5.40
2017-06-28T17:36:51.389Z,4.60
2017-06-28T17:39:17.343Z,3.30
2017-06-28T17:41:43.373Z,3.43
2017-06-28T17:44:09.447Z,3.57
2017-06-28T17:46:35.443Z,3.20
2017-06-28T17:49:01.507Z,3.40
2017-06-28T17:51:28.379Z,3.53
2017-06-28T17:53:55.247Z,3.53
2017-06-28T17:56:21.195Z,3.60
2017-06-28T17:58:47.172Z,3.30
2017-06-28T18:01:13.135Z,3.30
2017-06-28T18:03:39.131Z,3.40
2017-06-28T18:06:05.846Z,3.50
2017-06-28T18:08:31.818Z,5.80
2017-06-28T18:10:57.827Z,4.10
2017-06-28T18:13:23.748Z,3.00
2017-06-28T18:15:49.702Z,3.63
2017-06-28T18:18:15.682Z,2.93
2017-06-28T18:20:41.647Z,4.13
2017-06-28T18:23:07.575Z,3.10
2017-06-28T18:25:34.306Z,3.43
2017-06-28T18:28:00.252Z,3.37
2017-06-28T18:30:26.243Z,3.73
2017-06-28T18:32:52.247Z,3.40
2017-06-28T18:35:18.176Z,3.70
2017-06-28T18:37:44.247Z,3.17
2017-06-28T18:40:10.232Z,4.03
2017-06-28T18:42:36.255Z,3.27
2017-06-28T18:45:02.225Z,3.40
2017-06-28T18:47:28.977Z,4.07
2017-06-28T18:49:54.955Z,3.63
2017-06-28T18:52:21.796Z,4.20
2017-06-28T18:54:47.739Z,3.23
2017-06-28T18:57:14.168Z,3.97
2017-06-28T18:59:40.083Z,4.10
2017-06-28T19:02:06.004Z,3.40
2017-06-28T19:04:31.931Z,3.40
2017-06-28T19:06:57.864Z,5.03
2017-06-28T19:09:23.803Z,3.60
2017-06-28T19:11:49.702Z,3.90
2017-06-28T19:14:15.632Z,3.43
2017-06-28T19:16:41.587Z,3.80
2017-06-28T19:19:07.567Z,3.70
2017-06-28T19:21:34.284Z,3.10
2017-06-28T19:24:00.277Z,3.73
2017-06-28T19:26:26.244Z,3.93
2017-06-28T19:28:52.934Z,3.93
2017-06-28T19:31:18.915Z,3.77
2017-06-28T19:33:44.860Z,4.00
2017-06-28T19:36:10.780Z,3.77
2017-06-28T19:38:36.700Z,3.53
2017-06-28T19:41:02.703Z,4.03
2017-06-28T19:43:28.642Z,3.67
2017-06-28T19:45:54.592Z,3.50
2017-06-28T19:48:20.504Z,5.60
2017-06-28T19:50:46.499Z,3.80
2017-06-28T19:53:12.420Z,4.33
2017-06-28T19:55:38.360Z,3.60
2017-06-28T19:58:04.283Z,3.90
2017-06-28T20:00:31.107Z,4.00
2017-06-28T20:02:57.135Z,3.67
2017-06-28T20:05:23.072Z,4.70
2017-06-28T20:07:48.985Z,4.20
2017-06-28T20:10:16.815Z,3.90
2017-06-28T20:12:42.793Z,4.17
2017-06-28T20:15:09.419Z,5.67
2017-06-28T20:17:35.371Z,3.60
2017-06-28T20:20:01.475Z,4.20
2017-06-28T20:22:27.459Z,27.67
2017-06-28T20:24:53.379Z,14.23
2017-06-28T20:27:19.300Z,10.73
2017-06-28T20:29:45.237Z,11.27
2017-06-28T20:32:11.819Z,12.40
2017-06-28T20:34:37.759Z,26.63
2017-06-28T20:37:03.935Z,58.43
2017-06-28T20:39:29.856Z,40.00
2017-06-28T20:41:55.810Z,19.37
2017-06-28T20:44:21.765Z,33.77
2017-06-28T20:46:47.705Z,13.87
2017-06-28T20:49:13.660Z,19.70
2017-06-28T20:51:39.586Z,8.20
2017-06-28T20:54:05.548Z,25.27
2017-06-28T20:56:31.505Z,41.40
2017-06-28T20:58:57.399Z,19.63
2017-06-28T21:01:23.305Z,11.73
2017-06-28T21:03:49.233Z,17.23
2017-06-28T21:06:15.193Z,13.17
2017-06-28T21:08:41.123Z,13.00
2017-06-28T21:11:07.043Z,11.47
2017-06-28T21:13:32.973Z,9.33
2017-06-28T21:15:58.952Z,7.47
2017-06-28T21:18:24.877Z,5.50
2017-06-28T21:20:50.836Z,4.87
2017-06-28T21:23:16.803Z,5.40
2017-06-28T21:25:42.773Z,5.50
2017-06-28T21:28:08.703Z,6.63
2017-06-28T21:30:35.428Z,6.90
2017-06-28T21:33:01.383Z,6.10
2017-06-28T21:35:27.349Z,5.53
2017-06-28T21:37:53.275Z,5.53
2017-06-28T21:40:19.210Z,5.80
2017-06-28T21:42:45.395Z,5.20
2017-06-28T21:45:11.339Z,5.30
2017-06-28T21:47:38.136Z,5.83
2017-06-28T21:50:04.207Z,5.27
2017-06-28T21:52:30.167Z,5.40
2017-06-28T21:54:56.098Z,5.30
2017-06-28T21:57:22.048Z,5.67
2017-06-28T21:59:47.957Z,6.40
2017-06-28T22:02:13.876Z,6.80
2017-06-28T22:04:39.795Z,5.73
2017-06-28T22:07:05.728Z,7.33
2017-06-28T22:09:31.659Z,6.97
2017-06-28T22:11:57.612Z,9.33
2017-06-28T22:14:23.584Z,7.57
2017-06-28T22:16:49.503Z,7.53
2017-06-28T22:19:38.132Z,7.40
2017-06-28T22:22:04.044Z,8.30
2017-06-28T22:24:29.958Z,8.63
2017-06-28T22:26:55.914Z,6.77
2017-06-28T22:29:21.906Z,6.70
2017-06-28T22:31:48.539Z,6.53
2017-06-28T22:34:14.478Z,6.73
2017-06-28T22:36:40.389Z,6.63
2017-06-28T22:39:06.331Z,6.43
2017-06-28T22:41:32.252Z,6.90
2017-06-28T22:43:58.480Z,7.03
2017-06-28T22:46:24.390Z,9.57
2017-06-28T22:48:50.298Z,8.70
2017-06-28T22:51:16.219Z,7.40
2017-06-28T22:53:42.135Z,6.10
2017-06-28T22:56:08.043Z,6.83
2017-06-28T22:58:33.957Z,6.13
2017-06-28T23:00:59.875Z,5.77
2017-06-28T23:03:25.795Z,5.73
2017-06-28T23:05:51.720Z,7.00
2017-06-28T23:08:17.659Z,6.50
2017-06-28T23:10:43.605Z,6.07
2017-06-28T23:13:09.538Z,5.77
2017-06-28T23:15:35.447Z,8.17
2017-06-28T23:18:01.401Z,7.30
2017-06-28T23:20:27.339Z,6.13
2017-06-28T23:22:53.313Z,6.47
2017-06-28T23:25:19.267Z,5.70
2017-06-28T23:27:45.418Z,6.10
2017-06-28T23:30:11.339Z,6.70
2017-06-28T23:32:37.292Z,6.40
2017-06-28T23:35:03.230Z,7.90
2017-06-28T23:37:29.165Z,6.77
2017-06-28T23:39:55.083Z,7.57
2017-06-28T23:42:21.109Z,8.67
2017-06-28T23:44:47.048Z,6.50
2017-06-28T23:47:12.978Z,7.50
2017-06-28T23:49:38.895Z,6.50
2017-06-28T23:52:04.811Z,6.40
2017-06-28T23:54:30.879Z,6.40
2017-06-28T23:56:56.821Z,6.33
2017-06-28T23:59:22.731Z,6.93
